Temp: 9.7°C   Baro: 1017.7mb
  Wind: 11.0mph   Dir: NW (325°)
  Rain: 0.0mm (0.0mm/hr)
  Sun: 770W/m2  Humidity: 59%

Historic data

Bath Spa Weather Station Historical Data
Daily Summary for October 15, 2022 Units:  Metric    English   Both
Daily Weekly Monthly Yearly Custom
  High: Low: Average:
Temperature: 15.8 °C 9.2 °C 12.7 °C
Dew Point: 11.4 °C 8.1 °C 9.5 °C
Humidity: 94% 65% 82%
Wind Speed: 20.6km/h 0km/h 8.4km/h
Wind Gust: 33.8km/h - -
Wind- - SW
Pressure: 1005.6 hPa 1001.9 hPa -
Precipitation: 0.51 mm    
Historical Graphs
 
 
Tabular Data for October 15, 2022
Time Temperature Dew Point Pressure Wind Wind Speed Wind Gust Humidity Rainfall Rate (Hourly) solar
00:09 9.3 °C 8.2 °C 1005.6 hPa West 2.1 km/h 4.8 km/h 93% 0 mm 0 W/m2
00:14 9.3 °C 8.2 °C 1005.6 hPa West 1.9 km/h 6.4 km/h 93% 0 mm 0 W/m2
00:19 9.2 °C 8.1 °C 1005.6 hPa West 1.9 km/h 4.8 km/h 93% 0 mm 0 W/m2
00:24 9.2 °C 8.1 °C 1005.6 hPa West 1 km/h 4.8 km/h 93% 0 mm 0 W/m2
00:29 9.3 °C 8.2 °C 1005.6 hPa West 1 km/h 3.2 km/h 93% 0 mm 0 W/m2
00:34 9.4 °C 8.3 °C 1005.6 hPa Calm     93% 0 mm 0 W/m2
00:39 9.4 °C 8.3 °C 1005.6 hPa Calm     93% 0 mm 0 W/m2
00:44 9.4 °C 8.3 °C 1005.3 hPa West 0.3 km/h 1.6 km/h 93% 0 mm 0 W/m2
00:49 9.4 °C 8.3 °C 1005.3 hPa Calm   1.6 km/h 93.2% 0 mm 0 W/m2
00:54 9.5 °C 8.6 °C 1005.3 hPa Calm     94% 0 mm 0 W/m2
00:59 9.5 °C 8.6 °C 1005.3 hPa Calm   1.6 km/h 94% 0 mm 0 W/m2
01:04 9.6 °C 8.7 °C 1005.3 hPa West 1 km/h 6.4 km/h 94% 0 mm 0 W/m2
01:09 9.7 °C 8.8 °C 1005.3 hPa West 0.8 km/h 6.4 km/h 94% 0 mm 0 W/m2
01:14 9.9 °C 9.1 °C 1005.3 hPa WSW 1.4 km/h 6.4 km/h 94% 0 mm 0 W/m2
01:19 10.4 °C 9.5 °C 1005 hPa SW 1.4 km/h 6.4 km/h 94% 0 mm 0 W/m2
01:24 10.7 °C 9.8 °C 1005 hPa SW 1.1 km/h 6.4 km/h 94% 0 mm 0 W/m2
01:29 10.7 °C 9.8 °C 1005 hPa Calm   3.2 km/h 94% 0 mm 0 W/m2
01:34 10.7 °C 9.8 °C 1005 hPa SW 1.9 km/h 4.8 km/h 94% 0 mm 0 W/m2
01:39 10.7 °C 9.8 °C 1005 hPa SW 1.4 km/h 6.4 km/h 94% 0 mm 0 W/m2
01:44 10.7 °C 9.8 °C 1004.6 hPa SW 2.6 km/h 4.8 km/h 94% 0 mm 0 W/m2
01:49 10.7 °C 9.8 °C 1004.6 hPa SW 0.3 km/h 3.2 km/h 94% 0 mm 0 W/m2
01:54 10.7 °C 9.8 °C 1004.6 hPa Calm     94% 0 mm 0 W/m2
01:59 10.7 °C 9.8 °C 1004.6 hPa Calm     94% 0 mm 0 W/m2
02:04 10.7 °C 9.7 °C 1004.6 hPa Calm     94% 0 mm 0 W/m2
02:09 10.6 °C 9.7 °C 1004.6 hPa SW 0.6 km/h 3.2 km/h 94% 0 mm 0 W/m2
02:14 10.6 °C 9.7 °C 1004.6 hPa SW 0.6 km/h 3.2 km/h 94% 0 mm 0 W/m2
02:19 10.6 °C 9.7 °C 1004.6 hPa SW 2.3 km/h 3.2 km/h 94% 0 mm 0 W/m2
02:24 10.6 °C 9.7 °C 1004.3 hPa SW 1 km/h 4.8 km/h 94% 0 mm 0 W/m2
02:29 10.7 °C 9.8 °C 1004.3 hPa SW 1.6 km/h 4.8 km/h 94% 0 mm 0 W/m2
02:34 10.8 °C 9.9 °C 1004.3 hPa SW 3.9 km/h 6.4 km/h 94% 0 mm 0 W/m2
02:39 10.9 °C 10 °C 1004.3 hPa SW 1.8 km/h 6.4 km/h 94% 0 mm 0 W/m2
02:44 10.9 °C 10.1 °C 1003.9 hPa SW 3.2 km/h 4.8 km/h 94% 0 mm 0 W/m2
02:49 11 °C 10.1 °C 1003.9 hPa SW 2.1 km/h 4.8 km/h 94% 0 mm 0 W/m2
02:54 11.1 °C 10.2 °C 1003.9 hPa SW 1.9 km/h 4.8 km/h 94% 0 mm 0 W/m2
02:59 11.2 °C 10.3 °C 1003.9 hPa SW 2.9 km/h 6.4 km/h 94% 0 mm 0 W/m2
03:04 11.3 °C 10.4 °C 1003.9 hPa Calm   6.4 km/h 94% 0 mm 0 W/m2
03:09 11.3 °C 10.4 °C 1003.6 hPa SW 1.3 km/h 6.4 km/h 94% 0 mm 0 W/m2
03:14 11.4 °C 10.5 °C 1003.6 hPa SW 1.3 km/h 4.8 km/h 94% 0 mm 0 W/m2
03:19 11.4 °C 10.6 °C 1003.6 hPa SW 3.4 km/h 4.8 km/h 94% 0 mm 0 W/m2
03:24 11.7 °C 10.7 °C 1003.3 hPa SW 1.3 km/h 4.8 km/h 94% 0 mm 0 W/m2
03:29 11.7 °C 10.8 °C 1003.3 hPa SW 0.3 km/h 4.8 km/h 94% 0 mm 0 W/m2
03:34 11.7 °C 10.8 °C 1003.3 hPa SW 0.3 km/h 1.6 km/h 94% 0 mm 0 W/m2
03:39 11.7 °C 10.8 °C 1003.3 hPa SW 1.4 km/h 4.8 km/h 94% 0 mm 0 W/m2
03:44 11.7 °C 10.8 °C 1003.3 hPa SW 0.3 km/h 3.2 km/h 94% 0 mm 0 W/m2
03:49 11.8 °C 10.9 °C 1002.9 hPa SW 1.4 km/h 4.8 km/h 94% 0 mm 0 W/m2
03:54 11.9 °C 11 °C 1002.9 hPa Calm   4.8 km/h 94% 0 mm 0 W/m2
03:59 11.9 °C 11 °C 1002.9 hPa South 1 km/h 6.4 km/h 94% 0 mm 0 W/m2
04:04 11.9 °C 11 °C 1002.9 hPa South 1 km/h 6.4 km/h 94% 0 mm 0 W/m2
04:09 11.9 °C 11.1 °C 1002.9 hPa South 2.3 km/h 4.8 km/h 94% 0 mm 0 W/m2
04:14 12.1 °C 11.2 °C 1002.9 hPa SSW 4.7 km/h 9.7 km/h 94% 0 mm 0 W/m2
04:19 12.1 °C 11.2 °C 1002.6 hPa Calm   1.6 km/h 94% 0 mm 0 W/m2
04:24 12.1 °C 11.2 °C 1002.6 hPa SSW 0.8 km/h 6.4 km/h 94% 0 mm 0 W/m2
04:29 12.1 °C 11 °C 1002.6 hPa SSW 2.4 km/h 6.4 km/h 93% 0 mm 0 W/m2
04:34 12.2 °C 11.2 °C 1002.6 hPa SSW 3.2 km/h 9.7 km/h 93.8% 0 mm 0 W/m2
04:39 12.3 °C 11.3 °C 1002.6 hPa SSW 5.6 km/h 12.9 km/h 93.4% 0 mm 0 W/m2
04:44 12.3 °C 11.3 °C 1002.6 hPa SW 7.4 km/h 12.9 km/h 93% 0 mm 0 W/m2
04:49 12.4 °C 11.3 °C 1002.6 hPa SSW 7.9 km/h 12.9 km/h 93% 0 mm 0 W/m2
04:54 12.5 °C 11.4 °C 1002.6 hPa SW 7.9 km/h 20.9 km/h 93% 0 mm 0 W/m2
04:59 12.4 °C 11.3 °C 1002.6 hPa SSW 7.1 km/h 20.9 km/h 93% 0 mm 0 W/m2
05:04 12.4 °C 11.3 °C 1002.6 hPa SW 6.6 km/h 12.9 km/h 93% 0.25 mm 0 W/m2
05:09 12.3 °C 11.2 °C 1002.6 hPa WSW 5.3 km/h 9.7 km/h 93% 0.51 mm 0 W/m2
05:14 12.3 °C 11.2 °C 1002.3 hPa WSW 3.4 km/h 11.3 km/h 93% 0.51 mm 0 W/m2
05:19 12.2 °C 11.1 °C 1002.3 hPa SW 5.3 km/h 11.3 km/h 93% 0.51 mm 0 W/m2
05:24 12.2 °C 11.1 °C 1002.3 hPa SW 6.6 km/h 11.3 km/h 93% 0.51 mm 0 W/m2
05:29 12.2 °C 11.1 °C 1002.3 hPa SW 4.2 km/h 6.4 km/h 93% 0.51 mm 0 W/m2
05:34 12.2 °C 11.1 °C 1002.3 hPa SW 4.7 km/h 8 km/h 93% 0.51 mm 0 W/m2
05:39 12.1 °C 11 °C 1002.3 hPa WSW 7.2 km/h 19.3 km/h 93% 0.51 mm 0 W/m2
05:44 12.1 °C 10.9 °C 1002.3 hPa SW 5.3 km/h 14.5 km/h 93% 0.51 mm 0 W/m2
05:49 11.9 °C 10.8 °C 1002.3 hPa WSW 4.8 km/h 8 km/h 93% 0.51 mm 0 W/m2
05:54 11.8 °C 10.7 °C 1002.6 hPa WSW 4.5 km/h 12.9 km/h 93% 0.51 mm 0 W/m2
05:59 11.7 °C 10.6 °C 1002.6 hPa WSW 3.2 km/h 9.7 km/h 93% 0.51 mm 0 W/m2
06:04 11.7 °C 10.6 °C 1002.3 hPa WSW 4.3 km/h 9.7 km/h 93% 0.51 mm 0 W/m2
06:09 11.6 °C 10.5 °C 1002.3 hPa WSW 1.4 km/h 6.4 km/h 93% 0.51 mm 0 W/m2
06:14 11.4 °C 10.3 °C 1002.3 hPa WSW 3.5 km/h 8 km/h 93% 0.25 mm 0 W/m2
06:19 11.4 °C 10.3 °C 1002.3 hPa West 4.5 km/h 9.7 km/h 93% 0 mm 0 W/m2
06:24 11.3 °C 10.2 °C 1002.3 hPa West 2.6 km/h 9.7 km/h 93% 0 mm 0 W/m2
06:29 11.2 °C 10.1 °C 1002.3 hPa West 3.4 km/h 9.7 km/h 93% 0 mm 0 W/m2
06:34 11.1 °C 10 °C 1002.3 hPa West 2.9 km/h 8 km/h 93% 0 mm 0 W/m2
06:39 11 °C 9.9 °C 1002.3 hPa WNW 1.9 km/h 4.8 km/h 93% 0 mm 0 W/m2
06:44 10.9 °C 9.8 °C 1002.3 hPa WNW 3.4 km/h 6.4 km/h 93% 0 mm 0 W/m2
06:49 10.8 °C 9.7 °C 1002.3 hPa WSW 1.3 km/h 6.4 km/h 93% 0 mm 0 W/m2
06:54 10.7 °C 9.6 °C 1002.3 hPa NW 2.6 km/h 6.4 km/h 93% 0 mm 0 W/m2
06:59 10.7 °C 9.6 °C 1002.3 hPa WNW 2.1 km/h 4.8 km/h 93% 0 mm 0 W/m2
07:04 10.4 °C 9.3 °C 1002.3 hPa WNW 1.3 km/h 4.8 km/h 93% 0 mm 0 W/m2
07:09 10.3 °C 9.2 °C 1002.3 hPa West 1.1 km/h 8 km/h 93% 0 mm 0 W/m2
07:14 10.3 °C 9.3 °C 1002.3 hPa SW 1.3 km/h 8 km/h 93% 0 mm 0 W/m2
07:19 10.3 °C 9.2 °C 1002.3 hPa SW 0.8 km/h 3.2 km/h 93% 0 mm 0 W/m2
07:24 10.2 °C 9.1 °C 1002.3 hPa SW 0.8 km/h 9.7 km/h 93% 0 mm 0 W/m2
07:29 10.3 °C 9.2 °C 1002.3 hPa SSW 1.8 km/h 8 km/h 93% 0 mm 0 W/m2
07:34 10.4 °C 9.3 °C 1002.3 hPa SW 2.7 km/h 9.7 km/h 93% 0 mm 5 W/m2
07:39 10.4 °C 9.3 °C 1002.3 hPa WSW 0.6 km/h 4.8 km/h 93% 0 mm 7 W/m2
07:44 10.3 °C 9.2 °C 1002.3 hPa WSW 1.6 km/h 3.2 km/h 93% 0 mm 9 W/m2
07:49 10.2 °C 9.1 °C 1002.3 hPa WSW 2.1 km/h 4.8 km/h 93% 0 mm 11 W/m2
07:54 10.1 °C 9 °C 1002.3 hPa WSW 3.1 km/h 6.4 km/h 93% 0 mm 12 W/m2
07:59 10.2 °C 9.1 °C 1002.3 hPa WSW 2.1 km/h 6.4 km/h 93% 0 mm 16 W/m2
08:04 10.2 °C 9.1 °C 1002.3 hPa SW 1.9 km/h 4.8 km/h 93% 0 mm 18 W/m2
08:09 10.2 °C 9.1 °C 1002.3 hPa Calm   4.8 km/h 93% 0 mm 19 W/m2
08:14 10.3 °C 9.2 °C 1002.3 hPa SW 3.2 km/h 11.3 km/h 93% 0 mm 23 W/m2
08:19 10.4 °C 9.3 °C 1002.3 hPa SW 3.2 km/h 9.7 km/h 93% 0 mm 35 W/m2
08:24 10.7 °C 9.6 °C 1002.3 hPa South 6.4 km/h 12.9 km/h 92.8% 0 mm 40 W/m2
08:29 11.1 °C 9.8 °C 1002.3 hPa SSW 8.5 km/h 19.3 km/h 92.2% 0 mm 40 W/m2
08:34 11.3 °C 9.9 °C 1002.3 hPa SW 7.7 km/h 17.7 km/h 91.4% 0 mm 37 W/m2
08:39 11.4 °C 9.9 °C 1002.3 hPa SW 10.6 km/h 20.9 km/h 90.4% 0 mm 37 W/m2
08:44 11.7 °C 9.8 °C 1001.9 hPa SSW 14 km/h 22.5 km/h 88% 0 mm 46 W/m2
08:49 11.8 °C 9.5 °C 1002.3 hPa SW 13.5 km/h 25.7 km/h 85.8% 0 mm 86 W/m2
08:54 11.9 °C 9.4 °C 1002.3 hPa SW 11.3 km/h 19.3 km/h 84.8% 0 mm 88 W/m2
08:59 12 °C 9.3 °C 1002.3 hPa SW 11.9 km/h 20.9 km/h 83.6% 0 mm 76 W/m2
09:04 12 °C 9.2 °C 1002.6 hPa SW 7.9 km/h 22.5 km/h 83% 0 mm 113 W/m2
09:09 12.2 °C 9.3 °C 1002.6 hPa SW 10 km/h 20.9 km/h 83% 0 mm 134 W/m2
09:14 12.3 °C 9.3 °C 1002.6 hPa SSW 11.6 km/h 20.9 km/h 82.2% 0 mm 98 W/m2
09:19 12.3 °C 9.3 °C 1002.6 hPa SW 16.1 km/h 25.7 km/h 82% 0 mm 77 W/m2
09:24 12.3 °C 9.3 °C 1002.6 hPa SW 20.6 km/h 32.2 km/h 82% 0 mm 98 W/m2
09:29 12.3 °C 9.3 °C 1002.6 hPa SW 11.9 km/h 32.2 km/h 82% 0 mm 88 W/m2
09:34 12.3 °C 9.3 °C 1002.9 hPa SSW 15.1 km/h 27.4 km/h 82.4% 0 mm 95 W/m2
09:39 12.3 °C 9.4 °C 1002.6 hPa SW 11.6 km/h 25.7 km/h 83% 0 mm 169 W/m2
09:44 12.3 °C 9.7 °C 1002.9 hPa SSW 14.2 km/h 24.1 km/h 84% 0 mm 264 W/m2
09:49 12.3 °C 9.7 °C 1002.9 hPa SW 19.8 km/h 25.7 km/h 84% 0 mm 142 W/m2
09:54 12.3 °C 9.7 °C 1002.9 hPa WSW 7.7 km/h 27.4 km/h 84% 0 mm 139 W/m2
09:59 12.2 °C 9.6 °C 1002.9 hPa SW 15.1 km/h 22.5 km/h 84% 0 mm 102 W/m2
10:04 12.2 °C 9.6 °C 1002.9 hPa SW 14 km/h 24.1 km/h 84% 0 mm 176 W/m2
10:09 12.2 °C 9.5 °C 1002.9 hPa SW 13.2 km/h 20.9 km/h 83.4% 0 mm 183 W/m2
10:14 12.3 °C 9.6 °C 1002.9 hPa WSW 8.5 km/h 19.3 km/h 83% 0 mm 158 W/m2
10:19 12.4 °C 9.8 °C 1002.9 hPa SW 9.8 km/h 22.5 km/h 83.6% 0 mm 267 W/m2
10:24 12.7 °C 9.8 °C 1002.9 hPa WSW 13.8 km/h 24.1 km/h 83% 0 mm 178 W/m2
10:29 12.7 °C 9.9 °C 1002.9 hPa West 11.9 km/h 25.7 km/h 83% 0 mm 151 W/m2
10:34 12.8 °C 9.8 °C 1002.9 hPa WSW 13.8 km/h 25.7 km/h 82.2% 0 mm 178 W/m2
10:39 12.9 °C 9.9 °C 1002.9 hPa SW 12.9 km/h 20.9 km/h 82% 0 mm 348 W/m2
10:44 13.2 °C 10.2 °C 1003.3 hPa SW 16.7 km/h 24.1 km/h 82% 0 mm 346 W/m2
10:49 13.3 °C 10.2 °C 1003.3 hPa SW 10.9 km/h 24.1 km/h 81.4% 0 mm 399 W/m2
10:54 13.5 °C 10.5 °C 1003.3 hPa SW 8.5 km/h 19.3 km/h 81.8% 0 mm 399 W/m2
10:59 13.6 °C 10.6 °C 1003.3 hPa SW 9.3 km/h 17.7 km/h 82% 0 mm 227 W/m2
11:04 13.6 °C 10.6 °C 1003.3 hPa SW 8 km/h 16.1 km/h 82% 0 mm 260 W/m2
11:09 13.6 °C 10.6 °C 1003.3 hPa SW 13.2 km/h 24.1 km/h 81.6% 0 mm 202 W/m2
11:14 13.6 °C 10.4 °C 1003.3 hPa WSW 10.1 km/h 20.9 km/h 81% 0 mm 162 W/m2
11:19 13.6 °C 10.4 °C 1003.3 hPa WSW 10.6 km/h 20.9 km/h 81% 0 mm 267 W/m2
11:24 13.8 °C 10.6 °C 1003.6 hPa WSW 9.2 km/h 14.5 km/h 81% 0 mm 388 W/m2
11:29 13.9 °C 10.6 °C 1003.3 hPa SW 10.6 km/h 19.3 km/h 80.4% 0 mm 285 W/m2
11:34 14 °C 10.6 °C 1003.6 hPa SW 13.7 km/h 20.9 km/h 79.8% 0 mm 443 W/m2
11:39 14.1 °C 10.5 °C 1003.6 hPa SSW 11.9 km/h 22.5 km/h 78.8% 0 mm 378 W/m2
11:44 13.9 °C 10.2 °C 1003.6 hPa SW 12.6 km/h 33.8 km/h 78% 0 mm 330 W/m2
11:49 14.1 °C 10.2 °C 1003.6 hPa WSW 15 km/h 20.9 km/h 78% 0 mm 237 W/m2
11:54 14.1 °C 10.2 °C 1003.6 hPa WSW 12.9 km/h 24.1 km/h 77.6% 0 mm 343 W/m2
11:59 14.1 °C 10 °C 1003.3 hPa SW 11.1 km/h 25.7 km/h 76.4% 0 mm 209 W/m2
12:04 14.1 °C 9.9 °C 1003.3 hPa SW 11.9 km/h 25.7 km/h 76% 0 mm 445 W/m2
12:09 14.3 °C 9.9 °C 1003.6 hPa SW 13.5 km/h 33.8 km/h 75% 0 mm 441 W/m2
12:14 14.3 °C 9.8 °C 1003.3 hPa WSW 14.2 km/h 25.7 km/h 74% 0 mm 462 W/m2
12:19 14.6 °C 9.9 °C 1003.3 hPa SW 13.2 km/h 25.7 km/h 74% 0 mm 478 W/m2
12:24 14.8 °C 9.8 °C 1003.3 hPa SW 10.6 km/h 22.5 km/h 72.2% 0 mm 531 W/m2
12:29 15.1 °C 9.8 °C 1003.3 hPa WSW 15.4 km/h 30.6 km/h 70.6% 0 mm 557 W/m2
12:34 15.1 °C 9.8 °C 1003.3 hPa WSW 17.7 km/h 32.2 km/h 70.4% 0 mm 559 W/m2
12:39 15.4 °C 10.2 °C 1003.3 hPa SW 9.7 km/h 27.4 km/h 70.8% 0 mm 541 W/m2
12:44 15.4 °C 9.9 °C 1003.3 hPa West 18.2 km/h 30.6 km/h 69.6% 0 mm 552 W/m2
12:49 15 °C 9.4 °C 1003.3 hPa WSW 14.5 km/h 30.6 km/h 69% 0 mm 304 W/m2
12:54 14.8 °C 9.2 °C 1003.3 hPa WSW 16.1 km/h 29 km/h 69% 0 mm 237 W/m2
12:59 14.7 °C 9.3 °C 1003.3 hPa West 17.4 km/h 27.4 km/h 70% 0 mm 267 W/m2
13:04 14.8 °C 9.5 °C 1003.6 hPa SW 13.2 km/h 25.7 km/h 70.6% 0 mm 533 W/m2
13:09 15 °C 9.1 °C 1003.3 hPa WSW 14.2 km/h 29 km/h 68% 0 mm 529 W/m2
13:14 15 °C 8.8 °C 1003.3 hPa WSW 14.8 km/h 29 km/h 66.6% 0 mm 517 W/m2
13:19 14.6 °C 8.2 °C 1003.3 hPa WSW 15.4 km/h 32.2 km/h 65.6% 0 mm 311 W/m2
13:24 14.4 °C 8.3 °C 1003.3 hPa WSW 13.8 km/h 29 km/h 67% 0 mm 281 W/m2
13:29 14.4 °C 8.6 °C 1003.3 hPa WSW 13.7 km/h 22.5 km/h 67.8% 0 mm 461 W/m2
13:34 14.6 °C 8.8 °C 1003.3 hPa WSW 11.6 km/h 22.5 km/h 68.2% 0 mm 278 W/m2
13:39 14.7 °C 9.3 °C 1003.3 hPa WSW 12.2 km/h 17.7 km/h 70.2% 0 mm 244 W/m2
13:44 14.7 °C 9.6 °C 1002.9 hPa SW 8.7 km/h 24.1 km/h 71.6% 0 mm 279 W/m2
13:49 14.7 °C 9.8 °C 1002.9 hPa WSW 9.2 km/h 24.1 km/h 72.8% 0 mm 279 W/m2
13:54 14.7 °C 9.8 °C 1002.9 hPa SW 10 km/h 24.1 km/h 72.8% 0 mm 418 W/m2
13:59 14.8 °C 9.7 °C 1002.9 hPa WSW 16.6 km/h 24.1 km/h 71.5% 0 mm 501 W/m2
14:04 15.1 °C 9.8 °C 1002.9 hPa SW 14.8 km/h 22.5 km/h 70.4% 0 mm 501 W/m2
14:09 15.3 °C 9.8 °C 1002.9 hPa SW 14.8 km/h 22.5 km/h 69.8% 0 mm 461 W/m2
14:14 15.4 °C 9.7 °C 1002.9 hPa WSW 12.6 km/h 24.1 km/h 68.4% 0 mm 457 W/m2
14:19 15.6 °C 9.8 °C 1002.9 hPa WSW 13.5 km/h 24.1 km/h 68.6% 0 mm 461 W/m2
14:24 15.7 °C 9.8 °C 1002.9 hPa WSW 13.8 km/h 24.1 km/h 68% 0 mm 475 W/m2
14:29 15.8 °C 10 °C 1002.6 hPa WSW 11.3 km/h 20.9 km/h 68.2% 0 mm 415 W/m2
14:34 15.7 °C 9.7 °C 1002.6 hPa WSW 13.5 km/h 29 km/h 67.2% 0 mm 438 W/m2
14:39 15.7 °C 9.7 °C 1002.6 hPa WSW 14.5 km/h 25.7 km/h 67.2% 0 mm 302 W/m2
14:44 15.7 °C 9.7 °C 1002.6 hPa WSW 14.5 km/h 30.6 km/h 67.6% 0 mm 304 W/m2
14:49 15.7 °C 9.8 °C 1002.6 hPa WSW 19 km/h 24.1 km/h 68.2% 0 mm 480 W/m2
14:54 15.8 °C 9.8 °C 1002.6 hPa SSW 17.4 km/h 25.7 km/h 67.8% 0 mm 461 W/m2
14:59 15.6 °C 9.8 °C 1002.3 hPa SW 16.7 km/h 30.6 km/h 68.4% 0 mm 311 W/m2
15:04 15.6 °C 9.8 °C 1002.3 hPa SSW 11.9 km/h 30.6 km/h 68.6% 0 mm 427 W/m2
15:09 15.7 °C 9.5 °C 1002.3 hPa SW 15.4 km/h 32.2 km/h 66.6% 0 mm 374 W/m2
15:14 15.6 °C 9.2 °C 1002.3 hPa SW 17.2 km/h 32.2 km/h 65.6% 0 mm 165 W/m2
15:19 15.4 °C 9.1 °C 1002.3 hPa SW 18.5 km/h 29 km/h 65.6% 0 mm 369 W/m2
15:24 15.4 °C 9.2 °C 1002.3 hPa SW 15.8 km/h 25.7 km/h 66.2% 0 mm 353 W/m2
15:29 15.3 °C 9.2 °C 1002.3 hPa SW 16.7 km/h 30.6 km/h 66.8% 0 mm 267 W/m2
15:34 15.1 °C 9.2 °C 1002.3 hPa SW 11.9 km/h 27.4 km/h 67.6% 0 mm 295 W/m2
15:39 15.2 °C 9.3 °C 1002.3 hPa SW 18.7 km/h 27.4 km/h 68.4% 0 mm 336 W/m2
15:44 15.3 °C 9.4 °C 1002.3 hPa SW 13.8 km/h 25.7 km/h 68.4% 0 mm 313 W/m2
15:49 15.4 °C 9.7 °C 1002.3 hPa SW 9.7 km/h 22.5 km/h 68.4% 0 mm 316 W/m2
15:54 15.5 °C 9.6 °C 1002.3 hPa SW 14.5 km/h 22.5 km/h 68% 0 mm 294 W/m2
15:59 15.6 °C 9.6 °C 1002.3 hPa SW 16.1 km/h 25.7 km/h 67.4% 0 mm 279 W/m2
16:04 15.6 °C 9.5 °C 1002.3 hPa SW 16.9 km/h 25.7 km/h 67% 0 mm 260 W/m2
16:09 15.6 °C 9.5 °C 1002.3 hPa SW 9 km/h 25.7 km/h 67.2% 0 mm 248 W/m2
16:14 15.6 °C 9.6 °C 1002.3 hPa SW 19.3 km/h 27.4 km/h 67.6% 0 mm 241 W/m2
16:19 15.4 °C 9.3 °C 1002.3 hPa SW 13.8 km/h 30.6 km/h 67% 0 mm 181 W/m2
16:24 15.4 °C 9.2 °C 1002.3 hPa SW 13.4 km/h 33.8 km/h 66% 0 mm 88 W/m2
16:29 15.3 °C 8.9 °C 1002.6 hPa SW 14.8 km/h 25.7 km/h 65.6% 0 mm 202 W/m2
16:34 15.4 °C 8.9 °C 1002.6 hPa SW 16.1 km/h 29 km/h 65% 0 mm 207 W/m2
16:39 15.6 °C 9.1 °C 1002.6 hPa SW 9.7 km/h 22.5 km/h 65.4% 0 mm 193 W/m2
16:44 15.5 °C 9 °C 1002.3 hPa SW 15.9 km/h 27.4 km/h 65.2% 0 mm 162 W/m2
16:49 15.3 °C 9.1 °C 1002.3 hPa SSW 10.9 km/h 29 km/h 66% 0 mm 163 W/m2
16:54 15.3 °C 9.1 °C 1002.3 hPa SW 15.8 km/h 27.4 km/h 66.4% 0 mm 144 W/m2
16:59 15.2 °C 9.2 °C 1002.3 hPa SW 12.9 km/h 27.4 km/h 67.6% 0 mm 127 W/m2
17:04 15 °C 9.3 °C 1002.3 hPa SSW 11.6 km/h 27.4 km/h 68.6% 0 mm 125 W/m2
17:09 14.9 °C 9.6 °C 1002.3 hPa SW 14.2 km/h 25.7 km/h 70.2% 0 mm 100 W/m2
17:14 14.7 °C 9.5 °C 1002.3 hPa SSW 14.8 km/h 22.5 km/h 71% 0 mm 84 W/m2
17:19 14.6 °C 9.6 °C 1002.3 hPa SW 10 km/h 19.3 km/h 72% 0 mm 69 W/m2
17:24 14.6 °C 9.6 °C 1002.3 hPa SW 11.9 km/h 22.5 km/h 72% 0 mm 62 W/m2
17:29 14.5 °C 9.6 °C 1002.3 hPa SW 10.8 km/h 20.9 km/h 72.4% 0 mm 44 W/m2
17:34 14.4 °C 9.6 °C 1002.6 hPa SW 8.7 km/h 17.7 km/h 73% 0 mm 42 W/m2
17:39 14.3 °C 9.3 °C 1002.6 hPa SW 12.9 km/h 19.3 km/h 72% 0 mm 28 W/m2
17:44 14.3 °C 9.2 °C 1002.6 hPa SW 9 km/h 22.5 km/h 71.4% 0 mm 25 W/m2
17:49 14.2 °C 8.8 °C 1002.6 hPa WSW 9.8 km/h 22.5 km/h 70% 0 mm 19 W/m2
17:54 14.1 °C 8.7 °C 1002.6 hPa SW 9.7 km/h 16.1 km/h 70% 0 mm 18 W/m2
17:59 14 °C 8.6 °C 1002.6 hPa SW 9.7 km/h 16.1 km/h 70% 0 mm 18 W/m2
18:04 13.9 °C 8.5 °C 1002.6 hPa SW 11.3 km/h 25.7 km/h 70% 0 mm 16 W/m2
18:09 13.8 °C 8.7 °C 1002.6 hPa SSW 6.3 km/h 17.7 km/h 71% 0 mm 12 W/m2
18:14 13.7 °C 8.7 °C 1002.6 hPa SSW 7.1 km/h 14.5 km/h 72% 0 mm 9 W/m2
18:19 13.6 °C 8.9 °C 1002.6 hPa SSW 6.1 km/h 14.5 km/h 73% 0 mm 5 W/m2
18:24 13.4 °C 8.8 °C 1002.6 hPa SSW 6.9 km/h 12.9 km/h 73.6% 0 mm 0 W/m2
18:29 13.3 °C 8.9 °C 1002.6 hPa SSW 5.3 km/h 12.9 km/h 74.6% 0 mm 0 W/m2
18:34 13.2 °C 8.9 °C 1002.9 hPa SSW 4.7 km/h 14.5 km/h 75.2% 0 mm 0 W/m2
18:39 13.2 °C 9.1 °C 1002.9 hPa SSW 9.7 km/h 19.3 km/h 76% 0 mm 0 W/m2
18:44 13.2 °C 8.9 °C 1002.9 hPa SW 10.3 km/h 16.1 km/h 75% 0 mm 0 W/m2
18:49 13.2 °C 8.9 °C 1002.9 hPa SW 6.1 km/h 14.5 km/h 75% 0 mm 0 W/m2
18:54 13.1 °C 8.7 °C 1002.9 hPa SSW 9 km/h 12.9 km/h 74.6% 0 mm 0 W/m2
18:59 13 °C 8.5 °C 1002.9 hPa SSW 7.6 km/h 16.1 km/h 74% 0 mm 0 W/m2
19:04 12.9 °C 8.4 °C 1002.9 hPa SW 8 km/h 14.5 km/h 74% 0 mm 0 W/m2
19:09 12.8 °C 8.4 °C 1002.9 hPa SSW 9.7 km/h 16.1 km/h 74.6% 0 mm 0 W/m2
19:14 12.8 °C 8.5 °C 1002.9 hPa SSW 8.5 km/h 16.1 km/h 75% 0 mm 0 W/m2
19:19 12.8 °C 8.5 °C 1002.9 hPa South 6.6 km/h 14.5 km/h 75% 0 mm 0 W/m2
19:24 12.7 °C 8.4 °C 1003.3 hPa SSW 6.8 km/h 12.9 km/h 75.2% 0 mm 0 W/m2
19:29 12.7 °C 8.6 °C 1003.3 hPa SW 9.3 km/h 19.3 km/h 76% 0 mm 0 W/m2
19:34 12.7 °C 8.7 °C 1003.3 hPa SSW 10.6 km/h 19.3 km/h 76% 0 mm 0 W/m2
19:39 12.8 °C 8.7 °C 1003.3 hPa SSW 8.9 km/h 19.3 km/h 76% 0 mm 0 W/m2
19:44 12.8 °C 8.7 °C 1003.3 hPa SSW 9.3 km/h 14.5 km/h 76% 0 mm 0 W/m2
19:49 12.8 °C 8.7 °C 1003.3 hPa SSW 9.2 km/h 17.7 km/h 76% 0 mm 0 W/m2
19:54 12.8 °C 8.8 °C 1003.3 hPa SSW 8.2 km/h 20.9 km/h 76.6% 0 mm 0 W/m2
19:59 12.8 °C 8.8 °C 1003.3 hPa SW 7.7 km/h 20.9 km/h 77% 0 mm 0 W/m2
20:04 12.7 °C 8.9 °C 1003.6 hPa SW 8.5 km/h 17.7 km/h 77.4% 0 mm 0 W/m2
20:09 12.6 °C 8.9 °C 1003.6 hPa SW 9 km/h 14.5 km/h 78% 0 mm 0 W/m2
20:14 12.6 °C 8.8 °C 1003.6 hPa SW 5.8 km/h 12.9 km/h 78% 0 mm 0 W/m2
20:19 12.4 °C 8.7 °C 1003.6 hPa SW 6.4 km/h 12.9 km/h 78% 0 mm 0 W/m2
20:24 12.4 °C 8.7 °C 1003.6 hPa SW 8.9 km/h 12.9 km/h 78% 0 mm 0 W/m2
20:29 12.4 °C 8.7 °C 1003.6 hPa SW 8.7 km/h 16.1 km/h 78% 0 mm 0 W/m2
20:34 12.4 °C 8.7 °C 1003.6 hPa SW 6.1 km/h 12.9 km/h 78% 0 mm 0 W/m2
20:39 12.4 °C 8.7 °C 1003.6 hPa SW 5.8 km/h 14.5 km/h 78% 0 mm 0 W/m2
20:44 12.4 °C 8.7 °C 1003.6 hPa SW 6.1 km/h 12.9 km/h 78% 0 mm 0 W/m2
20:49 12.4 °C 8.7 °C 1003.6 hPa SW 6.4 km/h 12.9 km/h 78% 0 mm 0 W/m2
20:54 12.3 °C 8.8 °C 1003.6 hPa SW 7.9 km/h 16.1 km/h 79% 0 mm 0 W/m2
20:59 12.4 °C 8.9 °C 1003.9 hPa SW 8.9 km/h 16.1 km/h 79% 0 mm 0 W/m2
21:04 12.4 °C 8.8 °C 1003.9 hPa SW 7.9 km/h 14.5 km/h 78.8% 0 mm 0 W/m2
21:09 12.4 °C 8.8 °C 1003.9 hPa SW 5.8 km/h 17.7 km/h 78.8% 0 mm 0 W/m2
21:14 12.4 °C 8.9 °C 1003.6 hPa SSW 6 km/h 11.3 km/h 79% 0 mm 0 W/m2
21:19 12.4 °C 8.9 °C 1003.6 hPa SSW 9.7 km/h 14.5 km/h 79% 0 mm 0 W/m2
21:24 12.4 °C 8.9 °C 1003.6 hPa SW 7.1 km/h 14.5 km/h 79% 0 mm 0 W/m2
21:29 12.4 °C 8.9 °C 1003.6 hPa SW 9.5 km/h 22.5 km/h 79% 0 mm 0 W/m2
21:33 12.4 °C 8.9 °C 1003.6 hPa SSW 6 km/h 14.5 km/h 79% 0 mm 0 W/m2
21:39 12.4 °C 8.9 °C 1003.6 hPa SSW 7.9 km/h 19.3 km/h 79% 0 mm 0 W/m2
21:44 12.4 °C 8.9 °C 1003.9 hPa SW 6 km/h 14.5 km/h 79% 0 mm 0 W/m2
21:49 12.4 °C 8.9 °C 1003.9 hPa SW 9.7 km/h 22.5 km/h 79% 0 mm 0 W/m2
21:54 12.4 °C 8.9 °C 1003.9 hPa WSW 12.9 km/h 24.1 km/h 79% 0 mm 0 W/m2
21:59 12.5 °C 9 °C 1003.9 hPa SW 11.6 km/h 25.7 km/h 79% 0 mm 0 W/m2
22:04 12.5 °C 9 °C 1003.9 hPa SW 9.3 km/h 19.3 km/h 79% 0 mm 0 W/m2
22:09 12.5 °C 8.9 °C 1003.9 hPa SW 14.5 km/h 30.6 km/h 78.6% 0 mm 0 W/m2
22:14 12.6 °C 8.9 °C 1003.9 hPa SW 13.5 km/h 25.7 km/h 78% 0 mm 0 W/m2
22:19 12.6 °C 8.8 °C 1003.9 hPa SW 12.1 km/h 22.5 km/h 78% 0 mm 0 W/m2
22:24 12.5 °C 8.8 °C 1004.3 hPa SSW 10.9 km/h 22.5 km/h 78% 0 mm 0 W/m2
22:29 12.4 °C 8.7 °C 1004.3 hPa SW 9 km/h 17.7 km/h 78% 0 mm 0 W/m2
22:34 12.3 °C 8.6 °C 1004.3 hPa SW 12.9 km/h 20.9 km/h 78% 0 mm 0 W/m2
22:39 12.3 °C 8.6 °C 1004.6 hPa SW 11.9 km/h 22.5 km/h 78% 0 mm 0 W/m2
22:44 12.2 °C 8.5 °C 1004.6 hPa SW 10.8 km/h 22.5 km/h 78% 0 mm 0 W/m2
22:49 12.2 °C 8.5 °C 1004.6 hPa SW 15.8 km/h 27.4 km/h 78% 0 mm 0 W/m2
22:54 12.2 °C 8.5 °C 1004.6 hPa WSW 11.4 km/h 25.7 km/h 78% 0 mm 0 W/m2
22:59 12.2 °C 8.5 °C 1004.6 hPa SW 15.4 km/h 24.1 km/h 78% 0 mm 0 W/m2
23:04 12.2 °C 8.5 °C 1004.6 hPa SW 12.2 km/h 30.6 km/h 78% 0 mm 0 W/m2
23:09 12.1 °C 8.4 °C 1004.6 hPa SW 12.2 km/h 25.7 km/h 78% 0 mm 0 W/m2
23:14 12.1 °C 8.3 °C 1004.6 hPa SW 12.7 km/h 22.5 km/h 78% 0 mm 0 W/m2
23:19 11.9 °C 8.4 °C 1004.6 hPa SSW 10.3 km/h 19.3 km/h 79% 0 mm 0 W/m2
23:24 11.9 °C 8.4 °C 1004.6 hPa SW 10.3 km/h 20.9 km/h 79% 0 mm 0 W/m2
23:29 11.8 °C 8.3 °C 1004.6 hPa SW 9.5 km/h 20.9 km/h 79% 0 mm 0 W/m2
23:34 11.8 °C 8.3 °C 1004.6 hPa SW 14.2 km/h 20.9 km/h 79% 0 mm 0 W/m2
23:39 11.8 °C 8.3 °C 1004.6 hPa SW 10.6 km/h 22.5 km/h 79% 0 mm 0 W/m2
23:44 11.8 °C 8.3 °C 1004.6 hPa SW 11.3 km/h 25.7 km/h 79% 0 mm 0 W/m2
23:49 11.8 °C 8.3 °C 1004.6 hPa SSW 11.4 km/h 19.3 km/h 79% 0 mm 0 W/m2
23:54 11.8 °C 8.3 °C 1004.6 hPa SW 12.2 km/h 19.3 km/h 79% 0 mm 0 W/m2
23:59 11.8 °C 8.3 °C 1004.6 hPa SW 11.3 km/h 20.9 km/h 79% 0 mm 0 W/m2
Bath Spa Weather
Compliments of Weather Underground - 2 mb